.
WxDataArchive / Data Records for 2010-08-09
2010-08-08 August 2010 2010-08-10

Data Records for Monday, 09 August 2010

Time	Temp	Chill	HIndex	Humid	Dewpt	 Wind 	HiWind	WindDir	Rain 	Barom 
-----	----	-----	------	-----	-----	------	------	-------	-----	----- 
00:00	73.5	73.5	73.5	81	67.3	0	1	135	0.00	29.923 
00:05	73.5	73.5	73.5	81	67.3	0	1	---	0.00	29.923 
00:10	73.3	73.3	73.3	81	67.1	0	0	---	0.00	29.923 
00:15	73.3	73.3	73.3	81	67.1	0	0	---	0.00	29.925 
00:20	73.2	73.2	73.2	81	67.0	0	0	---	0.00	29.925 
00:25	73.0	73.0	73.0	82	67.2	0	0	---	0.00	29.925 
00:30	73.0	73.0	73.0	82	67.2	0	0	---	0.00	29.919 
00:35	72.8	72.8	72.8	82	67.0	0	0	---	0.00	29.919 
00:40	72.8	72.8	72.8	82	67.0	0	0	---	0.00	29.919 
00:45	72.7	72.7	72.7	83	67.2	0	0	---	0.00	29.914 
00:50	72.7	72.7	72.7	83	67.2	0	1	135	0.00	29.914 
00:55	72.7	72.7	72.7	83	67.2	0	1	135	0.00	29.914 
01:00	72.7	72.7	72.7	83	67.2	0	1	135	0.00	29.917 
01:05	72.8	72.8	72.8	83	67.3	0	2	135	0.00	29.917 
01:10	73.0	73.0	73.0	82	67.2	0	1	158	0.00	29.917 
01:15	73.0	73.0	73.0	82	67.2	0	1	158	0.00	29.923 
01:20	73.0	73.0	73.0	81	66.8	0	0	---	0.00	29.923 
01:25	73.0	73.0	73.0	81	66.8	0	1	158	0.00	29.923 
01:30	73.2	73.2	73.2	81	67.0	0	1	158	0.00	29.926 
01:35	73.2	73.2	73.2	81	67.0	0	1	158	0.00	29.926 
01:40	73.2	73.2	73.2	81	67.0	0	1	158	0.00	29.926 
01:45	73.2	73.2	73.2	81	67.0	0	1	180	0.00	29.926 
01:50	73.3	73.3	73.3	81	67.1	0	1	180	0.00	29.926 
01:55	73.3	73.3	73.3	81	67.1	0	1	180	0.00	29.926 
02:00	73.2	73.2	73.2	81	67.0	0	1	180	0.00	29.923 
02:05	73.0	73.0	73.0	81	66.8	0	1	180	0.00	29.923 
02:10	72.8	72.8	72.8	81	66.6	0	3	248	0.00	29.923 
02:15	72.8	72.8	72.8	81	66.6	0	1	248	0.00	29.925 
02:20	72.7	72.7	72.7	82	66.9	0	1	248	0.00	29.925 
02:25	72.5	72.5	72.5	82	66.7	0	1	248	0.00	29.925 
02:30	72.5	72.5	72.5	82	66.7	0	1	248	0.00	29.923 
02:35	72.3	72.3	72.3	82	66.5	0	0	---	0.00	29.923 
02:40	72.1	72.1	72.1	83	66.6	0	0	---	0.00	29.923 
02:45	72.0	72.0	72.0	83	66.5	0	1	248	0.00	29.927 
02:50	71.8	71.8	71.8	83	66.3	0	1	248	0.00	29.927 
02:55	71.6	71.6	71.6	84	66.5	0	1	248	0.00	29.927 
03:00	71.5	71.5	71.5	84	66.4	0	0	---	0.00	29.925 
03:05	71.5	71.5	71.5	84	66.4	0	0	---	0.00	29.925 
03:10	71.3	71.3	71.3	84	66.2	0	0	---	0.00	29.925 
03:15	71.1	71.1	71.1	85	66.4	0	1	248	0.00	29.926 
03:20	71.1	71.1	71.1	85	66.4	0	1	248	0.00	29.926 
03:25	70.9	70.9	70.9	85	66.2	0	0	---	0.00	29.926 
03:30	70.9	70.9	70.9	85	66.2	0	0	---	0.00	29.926 
03:35	70.8	70.8	70.8	85	66.1	0	0	---	0.00	29.926 
03:40	70.8	70.8	70.8	85	66.1	0	0	---	0.00	29.926 
03:45	70.6	70.6	70.6	86	66.2	0	1	248	0.00	29.925 
03:50	70.6	70.6	70.6	86	66.2	0	0	---	0.00	29.925 
03:55	70.4	70.4	70.4	86	66.0	0	0	---	0.00	29.925 
04:00	70.4	70.4	70.4	86	66.0	0	0	---	0.00	29.928 
04:05	70.3	70.3	70.3	86	65.9	0	1	248	0.00	29.928 
04:10	70.3	70.3	70.3	86	65.9	0	0	---	0.00	29.928 
04:15	70.1	70.1	70.1	86	65.7	0	0	---	0.00	29.925 
04:20	70.1	70.1	70.1	87	66.0	0	0	---	0.00	29.925 
04:25	69.9	69.9	69.9	87	65.8	0	0	---	0.00	29.925 
04:30	69.9	69.9	69.9	87	65.8	0	0	---	0.00	29.924 
04:35	69.8	69.8	69.8	87	65.7	0	0	---	0.00	29.924 
04:40	69.6	69.6	69.6	87	65.6	0	0	---	0.00	29.924 
04:45	69.6	69.6	69.6	87	65.6	0	0	---	0.00	29.923 
04:50	69.4	69.4	69.4	87	65.4	0	0	---	0.00	29.923 
04:55	69.4	69.4	69.4	88	65.7	0	0	---	0.00	29.923 
05:00	69.4	69.4	69.4	88	65.7	0	0	---	0.00	29.924 
05:05	69.3	69.3	69.3	88	65.6	0	0	---	0.00	29.924 
05:10	69.3	69.3	69.3	88	65.6	0	0	---	0.00	29.924 
05:15	69.3	69.3	69.3	88	65.6	0	0	---	0.00	29.925 
05:20	69.1	69.1	69.1	88	65.4	0	0	---	0.00	29.925 
05:25	69.1	69.1	69.1	88	65.4	0	1	248	0.00	29.925 
05:30	69.1	69.1	69.1	88	65.4	0	0	---	0.00	29.927 
05:35	68.9	68.9	68.9	88	65.2	0	0	---	0.00	29.927 
05:40	68.9	68.9	68.9	88	65.2	0	0	---	0.00	29.927 
05:45	68.9	68.9	68.9	88	65.2	0	0	---	0.00	29.926 
05:50	69.1	69.1	69.1	88	65.4	0	0	---	0.00	29.926 
05:55	69.1	69.1	69.1	87	65.1	0	0	---	0.00	29.926 
06:00	69.1	69.1	69.1	87	65.1	0	0	---	0.00	29.926 
06:05	69.1	69.1	69.1	87	65.1	0	0	---	0.00	29.926 
06:10	69.1	69.1	69.1	87	65.1	0	0	---	0.00	29.926 
06:15	69.1	69.1	69.1	88	65.4	0	0	---	0.00	29.928 
06:20	68.9	68.9	68.9	88	65.2	0	0	---	0.00	29.928 
06:25	68.8	68.8	68.8	88	65.1	0	0	---	0.00	29.928 
06:30	68.8	68.8	68.8	88	65.1	0	0	---	0.00	29.929 
06:35	68.6	68.6	68.6	88	64.9	0	0	---	0.00	29.929 
06:40	68.4	68.4	68.4	88	64.7	0	0	---	0.00	29.929 
06:45	68.3	68.3	68.3	88	64.6	0	0	---	0.00	29.930 
06:50	68.3	68.3	68.3	89	64.9	0	0	---	0.00	29.930 
06:55	68.1	68.1	68.1	89	64.7	0	0	---	0.00	29.930 
07:00	67.9	67.9	67.9	90	64.9	0	0	---	0.00	29.928 
07:05	67.9	67.9	67.9	90	64.9	0	0	---	0.00	29.928 
07:10	67.9	67.9	67.9	90	64.9	0	0	---	0.00	29.928 
07:15	67.9	67.9	67.9	91	65.2	0	0	---	0.00	29.930 
07:20	67.9	67.9	67.9	91	65.2	0	0	---	0.00	29.930 
07:25	68.1	68.1	68.1	90	65.0	0	0	---	0.00	29.930 
07:30	68.3	68.3	68.3	90	65.2	0	0	---	0.00	29.932 
07:35	68.4	68.4	68.4	90	65.3	0	0	---	0.00	29.932 
07:40	68.6	68.6	68.6	90	65.5	0	0	---	0.00	29.932 
07:45	68.8	68.8	68.8	90	65.7	0	0	---	0.00	29.944 
07:50	69.1	69.1	69.1	89	65.7	0	0	---	0.00	29.944 
07:55	69.4	69.4	69.4	89	66.0	0	0	---	0.00	29.944 
08:00	69.6	69.6	69.6	88	65.9	0	0	---	0.00	29.943 
08:05	70.1	70.1	70.1	87	66.0	0	0	---	0.00	29.943 
08:10	70.4	70.4	70.4	86	66.0	0	0	---	0.00	29.943 
08:15	70.8	70.8	70.8	85	66.1	0	0	---	0.00	29.949 
08:20	70.9	70.9	70.9	84	65.8	0	0	---	0.00	29.949 
08:25	71.3	71.3	71.3	83	65.9	0	0	---	0.00	29.949 
08:30	71.5	71.5	71.5	83	66.1	0	0	---	0.00	29.953 
08:35	71.8	71.8	71.8	82	66.0	0	0	---	0.00	29.953 
08:40	72.0	72.0	72.0	81	65.8	0	1	248	0.00	29.953 
08:45	72.1	72.1	72.1	81	65.9	0	1	248	0.00	29.954 
08:50	72.1	72.1	72.1	80	65.6	0	1	248	0.00	29.954 
08:55	72.3	72.3	72.3	80	65.8	0	1	248	0.00	29.954 
09:00	72.7	72.7	72.7	79	65.8	0	1	248	0.00	29.958 
09:05	72.8	72.8	72.8	79	65.9	0	1	248	0.00	29.958 
09:10	73.0	73.0	73.0	78	65.7	0	1	248	0.00	29.958 
09:15	73.2	73.2	73.2	77	65.5	0	1	248	0.00	29.963 
09:20	73.3	73.3	73.3	78	66.0	0	1	248	0.00	29.963 
09:25	74.0	74.0	74.0	77	66.3	0	1	248	0.00	29.963 
09:30	74.9	74.9	74.9	76	66.8	0	1	248	0.00	29.962 
09:35	75.8	75.8	77.2	74	66.9	0	2	248	0.00	29.962 
09:40	76.5	76.5	78.2	71	66.4	0	1	248	0.00	29.962 
09:45	77.2	77.2	79.0	69	66.2	0	0	---	0.00	29.957 
09:50	77.9	77.9	79.9	69	66.9	0	2	248	0.00	29.957 
09:55	78.5	78.5	80.4	65	65.7	0	1	248	0.00	29.957 
10:00	79.0	79.0	81.0	64	65.8	0	1	248	0.00	29.953 
10:05	79.4	79.4	81.4	63	65.7	0	2	248	0.00	29.953 
10:10	79.9	79.9	81.9	62	65.7	0	2	248	0.00	29.953 
10:15	80.3	80.3	82.3	61	65.6	0	3	248	0.00	29.959 
10:20	80.9	80.9	82.7	58	64.7	1	4	248	0.00	29.959 
10:25	81.1	81.1	83.0	59	65.4	1	3	270	0.00	29.959 
10:30	81.2	81.2	83.0	58	65.0	2	5	270	0.00	29.958 
10:35	81.8	81.8	83.8	58	65.6	1	2	292	0.00	29.958 
10:40	81.8	81.8	83.6	57	65.0	1	3	292	0.00	29.958 
10:45	81.8	81.8	83.6	57	65.0	0	2	292	0.00	29.957 
10:50	82.4	82.4	84.4	57	65.6	0	3	292	0.00	29.957 
10:55	82.6	82.6	84.7	57	65.8	0	1	292	0.00	29.957 
11:00	82.6	82.6	84.9	58	66.3	0	1	292	0.00	29.957 
11:05	82.8	82.8	85.2	58	66.5	0	1	292	0.00	29.957 
11:10	83.0	83.0	85.3	57	66.2	1	2	292	0.00	29.957 
11:15	83.0	83.0	85.7	59	67.2	0	2	315	0.00	29.964 
11:20	83.2	83.2	85.8	58	66.9	0	2	315	0.00	29.964 
11:25	83.2	83.2	85.8	58	66.9	0	2	315	0.00	29.964 
11:30	83.4	83.4	85.4	55	65.5	1	4	90	0.00	29.960 
11:35	83.8	83.8	86.7	58	67.4	0	2	90	0.00	29.960 
11:40	84.0	84.0	86.3	55	66.1	0	2	68	0.00	29.960 
11:45	84.0	84.0	86.5	56	66.6	0	2	45	0.00	29.970 
11:50	84.0	84.0	86.3	55	66.1	0	1	45	0.00	29.970 
11:55	83.6	83.6	85.7	55	65.7	0	2	0	0.00	29.970 
12:00	83.2	83.2	85.3	56	65.8	0	2	0	0.00	29.971 
12:05	83.2	83.2	85.6	57	66.4	0	1	0	0.00	29.971 
12:10	83.4	83.4	85.6	56	66.0	1	4	315	0.00	29.971 
12:15	83.6	83.6	85.9	56	66.2	0	3	292	0.00	29.972 
12:20	83.8	83.8	86.4	57	66.9	0	1	292	0.00	29.972 
12:25	84.1	84.1	86.2	54	65.6	0	2	292	0.00	29.972 
12:30	84.3	84.3	86.7	55	66.3	1	4	270	0.00	29.966 
12:35	84.9	84.9	87.3	54	66.4	1	3	270	0.00	29.966 
12:40	84.9	84.9	87.1	53	65.8	1	4	270	0.00	29.966 
12:45	84.9	84.9	88.5	58	68.4	0	2	270	0.00	29.966 
12:50	85.5	85.5	88.3	54	66.9	1	3	270	0.00	29.966 
12:55	85.3	85.3	87.4	52	65.6	1	2	270	0.00	29.966 
13:00	85.1	85.1	87.7	54	66.6	0	1	270	0.00	29.957 
13:05	85.3	85.3	87.7	53	66.2	0	3	270	0.00	29.957 
13:10	85.7	85.7	88.6	54	67.1	0	1	270	0.00	29.957 
13:15	86.3	86.3	90.2	56	68.7	0	1	270	0.00	29.954 
13:20	86.7	86.7	89.9	53	67.5	0	2	270	0.00	29.954 
13:25	87.4	87.4	90.1	50	66.4	0	2	270	0.00	29.954 
13:30	87.6	87.6	90.4	50	66.6	0	2	270	0.00	29.953 
13:35	87.6	87.6	90.4	50	66.6	0	3	270	0.00	29.953 
13:40	87.6	87.6	90.4	50	66.6	1	3	315	0.00	29.953 
13:45	88.0	88.0	91.8	52	68.1	1	2	315	0.00	29.953 
13:50	88.2	88.2	92.1	52	68.3	1	2	315	0.00	29.953 
13:55	88.4	88.4	92.1	51	67.9	1	3	338	0.00	29.953 
14:00	88.8	88.8	92.0	49	67.1	0	2	338	0.00	29.949 
14:05	88.8	88.8	91.6	48	66.5	1	3	270	0.00	29.949 
14:10	88.6	88.6	91.7	49	67.0	0	2	270	0.00	29.949 
14:15	88.8	88.8	92.0	49	67.1	1	3	68	0.00	29.940 
14:20	89.3	89.3	93.7	51	68.8	0	2	68	0.00	29.940 
14:25	89.5	89.5	93.7	50	68.4	1	3	135	0.00	29.940 
14:30	89.5	89.5	94.1	51	68.9	0	2	135	0.00	29.935 
14:35	89.3	89.3	93.7	51	68.8	1	4	112	0.00	29.935 
14:40	88.4	88.4	93.3	54	69.6	2	6	90	0.00	29.935 
14:45	88.0	88.0	92.2	53	68.7	2	5	90	0.00	29.930 
14:50	88.2	88.2	92.9	54	69.4	1	2	68	0.00	29.930 
14:55	87.8	87.8	92.6	55	69.6	2	4	90	0.00	29.930 
15:00	87.6	87.6	92.2	55	69.4	1	3	68	0.00	29.926 
15:05	87.4	87.4	92.2	56	69.7	1	5	135	0.00	29.926 
15:10	87.2	87.2	92.3	57	70.1	0	1	135	0.00	29.926 
15:15	87.0	87.0	91.9	57	69.9	0	2	135	0.00	29.926 
15:20	86.7	86.7	91.7	58	70.1	0	2	135	0.00	29.926 
15:25	86.7	86.7	92.1	59	70.6	0	2	135	0.00	29.926 
15:30	86.5	86.5	91.7	59	70.4	0	1	68	0.00	29.924 
15:35	86.3	86.3	91.7	60	70.7	0	2	68	0.00	29.924 
15:40	86.3	86.3	91.7	60	70.7	0	2	45	0.00	29.924 
15:45	86.3	86.3	91.7	60	70.7	1	6	90	0.00	29.914 
15:50	86.3	86.3	91.7	60	70.7	1	5	90	0.00	29.914 
15:55	86.5	86.5	92.1	60	70.9	0	3	90	0.00	29.914 
16:00	86.5	86.5	92.5	61	71.4	1	6	112	0.00	29.916 
16:05	86.3	86.3	91.7	60	70.7	0	2	112	0.00	29.916 
16:10	86.3	86.3	92.4	62	71.7	0	1	112	0.00	29.916 
16:15	86.5	86.5	92.8	62	71.9	0	1	202	0.00	29.913 
16:20	86.7	86.7	92.1	59	70.6	0	1	202	0.00	29.913 
16:25	86.7	86.7	92.1	59	70.6	1	5	270	0.00	29.913 
16:30	86.5	86.5	92.1	60	70.9	0	2	270	0.00	29.915 
16:35	86.5	86.5	92.1	60	70.9	1	3	270	0.00	29.915 
16:40	86.5	86.5	92.5	61	71.4	0	1	270	0.00	29.915 
16:45	86.5	86.5	92.1	60	70.9	1	4	90	0.00	29.912 
16:50	86.3	86.3	91.3	59	70.2	0	3	292	0.00	29.912 
16:55	86.1	86.1	91.3	60	70.6	0	2	248	0.00	29.912 
17:00	85.9	85.9	90.9	60	70.4	1	3	248	0.00	29.913 
17:05	85.5	85.5	90.8	62	71.0	1	3	292	0.00	29.913 
17:10	85.1	85.1	90.8	64	71.5	1	5	270	0.00	29.913 
17:15	84.7	84.7	90.0	64	71.1	0	3	292	0.00	29.911 
17:20	84.7	84.7	90.6	66	72.1	0	1	292	0.00	29.911 
17:25	85.3	85.3	91.5	65	72.2	0	2	338	0.00	29.911 
17:30	85.9	85.9	92.4	64	72.3	0	0	---	0.00	29.907 
17:35	86.3	86.3	93.2	64	72.7	0	0	---	0.00	29.907 
17:40	86.5	86.5	93.7	64	72.8	0	0	---	0.00	29.907 
17:45	86.5	86.5	93.3	63	72.4	0	1	338	0.00	29.907 
17:50	86.5	86.5	94.1	65	73.3	0	1	0	0.00	29.907 
17:55	86.5	86.5	94.1	65	73.3	0	0	---	0.00	29.907 
18:00	86.3	86.3	92.8	63	72.2	1	3	270	0.00	29.904 
18:05	86.1	86.1	92.0	62	71.5	1	3	270	0.00	29.904 
18:10	85.9	85.9	91.6	62	71.3	0	2	270	0.00	29.904 
18:15	85.7	85.7	91.6	63	71.6	0	1	270	0.00	29.902 
18:20	85.7	85.7	91.6	63	71.6	0	2	270	0.00	29.902 
18:25	85.9	85.9	92.4	64	72.3	0	0	---	0.00	29.902 
18:30	85.7	85.7	91.6	63	71.6	0	2	270	0.00	29.899 
18:35	85.7	85.7	92.0	64	72.1	0	1	270	0.00	29.899 
18:40	85.9	85.9	92.4	64	72.3	0	0	---	0.00	29.899 
18:45	85.9	85.9	92.0	63	71.8	0	0	---	0.00	29.900 
18:50	86.1	86.1	92.4	63	72.0	0	0	---	0.00	29.900 
18:55	86.1	86.1	92.4	63	72.0	0	0	---	0.00	29.900 
19:00	86.1	86.1	92.4	63	72.0	0	0	---	0.00	29.900 
19:05	86.1	86.1	92.4	63	72.0	0	1	270	0.00	29.900 
19:10	85.9	85.9	92.0	63	71.8	0	2	270	0.00	29.900 
19:15	85.9	85.9	92.0	63	71.8	0	1	270	0.00	29.897 
19:20	85.9	85.9	92.0	63	71.8	0	2	270	0.00	29.897 
19:25	85.9	85.9	92.0	63	71.8	0	1	270	0.00	29.897 
19:30	85.9	85.9	92.0	63	71.8	0	2	270	0.00	29.896 
19:35	85.7	85.7	91.6	63	71.6	0	1	270	0.00	29.896 
19:40	85.7	85.7	92.0	64	72.1	0	1	270	0.00	29.896 
19:45	85.7	85.7	92.0	64	72.1	0	1	270	0.00	29.894 
19:50	85.7	85.7	92.0	64	72.1	0	1	270	0.00	29.894 
19:55	85.7	85.7	92.3	65	72.5	0	1	270	0.00	29.894 
20:00	85.5	85.5	91.9	65	72.4	0	1	270	0.00	29.897 
20:05	85.5	85.5	92.3	66	72.8	0	0	---	0.00	29.897 
20:10	85.3	85.3	92.2	67	73.1	0	0	---	0.00	29.897 
20:15	85.1	85.1	91.8	67	72.9	0	0	---	0.00	29.893 
20:20	84.9	84.9	91.4	67	72.7	0	1	270	0.00	29.893 
20:25	84.7	84.7	91.0	67	72.5	0	0	---	0.00	29.893 
20:30	84.5	84.5	90.9	68	72.7	0	0	---	0.00	29.896 
20:35	84.3	84.3	90.8	69	73.0	0	0	---	0.00	29.896 
20:40	84.1	84.1	90.4	69	72.8	0	0	---	0.00	29.896 
20:45	84.0	84.0	90.5	70	73.1	0	0	---	0.00	29.900 
20:50	83.8	83.8	90.4	71	73.4	0	0	---	0.00	29.900 
20:55	83.4	83.4	89.5	71	73.0	0	0	---	0.00	29.900 
21:00	83.4	83.4	89.8	72	73.4	0	0	---	0.00	29.905 
21:05	83.2	83.2	89.7	73	73.6	0	0	---	0.00	29.905 
21:10	83.0	83.0	89.2	73	73.4	0	0	---	0.00	29.905 
21:15	82.8	82.8	89.1	74	73.6	0	0	---	0.00	29.898 
21:20	82.6	82.6	88.9	75	73.8	0	0	---	0.00	29.898 
21:25	82.4	82.4	88.7	76	74.1	0	0	---	0.00	29.898 
21:30	82.2	82.2	88.5	77	74.2	0	0	---	0.00	29.906 
21:35	82.0	82.0	88.0	77	74.1	0	0	---	0.00	29.906 
21:40	81.8	81.8	87.6	77	73.9	0	0	---	0.00	29.906 
21:45	81.6	81.6	87.4	78	74.1	0	0	---	0.00	29.908 
21:50	81.4	81.4	87.1	79	74.2	0	0	---	0.00	29.908 
21:55	81.2	81.2	86.7	79	74.0	0	0	---	0.00	29.908 
22:00	81.2	81.2	86.9	80	74.4	0	0	---	0.00	29.917 
22:05	81.1	81.1	86.7	80	74.3	0	0	---	0.00	29.917 
22:10	81.1	81.1	86.9	81	74.7	0	0	---	0.00	29.917 
22:15	80.9	80.9	86.4	81	74.5	0	0	---	0.00	29.914 
22:20	80.9	80.9	86.4	81	74.5	0	0	---	0.00	29.914 
22:25	80.7	80.7	85.9	81	74.3	0	0	---	0.00	29.914 
22:30	80.5	80.5	85.6	82	74.5	0	0	---	0.00	29.917 
22:35	80.5	80.5	85.6	82	74.5	0	0	---	0.00	29.917 
22:40	80.5	80.5	85.6	82	74.5	0	0	---	0.00	29.917 
22:45	80.3	80.3	85.3	83	74.6	0	0	---	0.00	29.919 
22:50	80.3	80.3	85.3	83	74.6	0	0	---	0.00	29.919 
22:55	80.1	80.1	84.9	83	74.5	0	0	---	0.00	29.919 
23:00	79.9	79.9	84.5	84	74.6	0	0	---	0.00	29.920 
23:05	79.8	79.8	84.3	84	74.5	0	0	---	0.00	29.920 
23:10	79.8	79.8	84.3	84	74.5	0	0	---	0.00	29.920 
23:15	79.6	79.6	83.8	84	74.3	0	0	---	0.00	29.921 
23:20	79.4	79.4	83.4	84	74.1	0	0	---	0.00	29.921 
23:25	79.2	79.2	83.0	85	74.3	0	0	---	0.00	29.921 
23:30	79.0	79.0	82.6	85	74.1	0	0	---	0.00	29.921 
23:35	79.0	79.0	82.6	85	74.1	0	0	---	0.00	29.921 
23:40	78.8	78.8	82.2	86	74.2	0	0	---	0.00	29.921 
23:45	78.6	78.6	81.7	86	74.0	0	0	---	0.00	29.924 
23:50	78.6	78.6	81.8	87	74.4	0	0	---	0.00	29.924 
23:55	78.5	78.5	81.6	87	74.3	0	0	---	0.00	29.924 

CoCoRaHS
IN-AL-39
A2 Web Hosting
Creative Commons License
GoDaddy
search engine by freefind advanced

loaded 2018-11-20 06:10:50 • last modified 2010-11-18 10:43:29
Privacy PolicyDisclaimer
• wx.awcolley.com is powered by PmWiki v.2002016 •
• all content (unless otherwise noted) © 2018 A W Colley